METAR Data
IDs: Format: Raw Decoded Include TAF

Data at: 1745 UTC 31 Jul 2021

METAR for:KCVO (Corvallis Muni, OR, US)
Text:KCVO 311656Z AUTO 10SM CLR 24/14 A3002 RMK AO2 SLP164 T02390139
Temperature: 23.9°C ( 75°F)
Dewpoint: 13.9°C ( 57°F) [RH = 54%]
Pressure (altimeter):30.02 inches Hg (1016.7 mb) [Sea level pressure: 1016.4 mb]
Visibility:10 or more sm (16+ km)
Ceiling:at least 12,000 feet AGL
Clouds:sky clear below 12,000 feet AGL
QC Flag:automated observation with no human augmentation
Text:KCVO 311556Z AUTO 29007KT 10SM CLR 21/13 A3001 RMK AO2 SLP162 T02060128
Temperature: 20.6°C ( 69°F)
Dewpoint: 12.8°C ( 55°F) [RH = 61%]
Pressure (altimeter):30.01 inches Hg (1016.3 mb) [Sea level pressure: 1016.2 mb]
Winds:from the WNW (290 degrees) at 8 MPH (7 knots; 3.6 m/s)
Visibility:10 or more sm (16+ km)
Ceiling:at least 12,000 feet AGL
Clouds:sky clear below 12,000 feet AGL
QC Flag:automated observation with no human augmentation
Text:KCVO 311356Z AUTO 30005KT 10SM CLR 19/13 A2999 RMK AO2 SLP153 T01890128
Temperature: 18.9°C ( 66°F)
Dewpoint: 12.8°C ( 55°F) [RH = 68%]
Pressure (altimeter):29.99 inches Hg (1015.7 mb) [Sea level pressure: 1015.3 mb]
Winds:from the WNW (300 degrees) at 6 MPH (5 knots; 2.6 m/s)
Visibility:10 or more sm (16+ km)
Ceiling:at least 12,000 feet AGL
Clouds:sky clear below 12,000 feet AGL
QC Flag:automated observation with no human augmentation
Text:KCVO 311256Z AUTO 31006KT 10SM CLR 18/13 A2997 RMK AO2 SLP146 T01830128
Temperature: 18.3°C ( 65°F)
Dewpoint: 12.8°C ( 55°F) [RH = 70%]
Pressure (altimeter):29.97 inches Hg (1015.0 mb) [Sea level pressure: 1014.6 mb]
Winds:from the NW (310 degrees) at 7 MPH (6 knots; 3.1 m/s)
Visibility:10 or more sm (16+ km)
Ceiling:at least 12,000 feet AGL
Clouds:sky clear below 12,000 feet AGL
QC Flag:automated observation with no human augmentation
Text:KCVO 311156Z AUTO 30008KT 10SM CLR 19/12 A2996 RMK AO2 SLP145 T01890122 10217 20183 53001
Temperature: 18.9°C ( 66°F)
Dewpoint: 12.2°C ( 54°F) [RH = 65%]
Pressure (altimeter):29.96 inches Hg (1014.6 mb) [Sea level pressure: 1014.5 mb]
Winds:from the WNW (300 degrees) at 9 MPH (8 knots; 4.1 m/s)
Visibility:10 or more sm (16+ km)
Ceiling:at least 12,000 feet AGL
Clouds:sky clear below 12,000 feet AGL
QC Flag:automated observation with no human augmentation
Text:KCVO 311056Z AUTO 31008KT 10SM CLR 18/13 A2996 RMK AO2 SLP145 T01830128
Temperature: 18.3°C ( 65°F)
Dewpoint: 12.8°C ( 55°F) [RH = 70%]
Pressure (altimeter):29.96 inches Hg (1014.6 mb) [Sea level pressure: 1014.5 mb]
Winds:from the NW (310 degrees) at 9 MPH (8 knots; 4.1 m/s)
Visibility:10 or more sm (16+ km)
Ceiling:at least 12,000 feet AGL
Clouds:sky clear below 12,000 feet AGL
QC Flag:automated observation with no human augmentation
Text:KCVO 310956Z AUTO 28008KT 10SM CLR 18/12 A2996 RMK AO2 SLP142 T01830122
Temperature: 18.3°C ( 65°F)
Dewpoint: 12.2°C ( 54°F) [RH = 68%]
Pressure (altimeter):29.96 inches Hg (1014.6 mb) [Sea level pressure: 1014.2 mb]
Winds:from the W (280 degrees) at 9 MPH (8 knots; 4.1 m/s)
Visibility:10 or more sm (16+ km)
Ceiling:at least 12,000 feet AGL
Clouds:sky clear below 12,000 feet AGL
QC Flag:automated observation with no human augmentation
Text:KCVO 310856Z AUTO 30011KT 10SM CLR 19/12 A2996 RMK AO2 SLP144 T01890122 53002
Temperature: 18.9°C ( 66°F)
Dewpoint: 12.2°C ( 54°F) [RH = 65%]
Pressure (altimeter):29.96 inches Hg (1014.6 mb) [Sea level pressure: 1014.4 mb]
Winds:from the WNW (300 degrees) at 13 MPH (11 knots; 5.7 m/s)
Visibility:10 or more sm (16+ km)
Ceiling:at least 12,000 feet AGL
Clouds:sky clear below 12,000 feet AGL
QC Flag:automated observation with no human augmentation
Text:KCVO 310756Z AUTO 30013KT 10SM CLR 19/12 A2995 RMK AO2 SLP141 T01940122 403280161
Temperature: 19.4°C ( 67°F)
Dewpoint: 12.2°C ( 54°F) [RH = 63%]
Pressure (altimeter):29.95 inches Hg (1014.3 mb) [Sea level pressure: 1014.1 mb]
Winds:from the WNW (300 degrees) at 15 MPH (13 knots; 6.7 m/s)
Visibility:10 or more sm (16+ km)
Ceiling:at least 12,000 feet AGL
Clouds:sky clear below 12,000 feet AGL
QC Flag:automated observation with no human augmentation
Text:KCVO 310656Z AUTO 30011G17KT 10SM CLR 21/13 A2996 RMK AO2 SLP142 T02060128
Temperature: 20.6°C ( 69°F)
Dewpoint: 12.8°C ( 55°F) [RH = 61%]
Pressure (altimeter):29.96 inches Hg (1014.6 mb) [Sea level pressure: 1014.2 mb]
Winds:from the WNW (300 degrees) at 13 MPH (11 knots; 5.7 m/s) gusting to 20 MPH (17 knots; 8.7 m/s)
Visibility:10 or more sm (16+ km)
Ceiling:at least 12,000 feet AGL
Clouds:sky clear below 12,000 feet AGL
QC Flag:automated observation with no human augmentation
Text:KCVO 310556Z AUTO 30012KT 10SM CLR 22/13 A2995 RMK AO2 SLP143 T02170133 10322 20217 51016
Temperature: 21.7°C ( 71°F)
Dewpoint: 13.3°C ( 56°F) [RH = 59%]
Pressure (altimeter):29.95 inches Hg (1014.3 mb) [Sea level pressure: 1014.3 mb]
Winds:from the WNW (300 degrees) at 14 MPH (12 knots; 6.2 m/s)
Visibility:10 or more sm (16+ km)
Ceiling:at least 12,000 feet AGL
Clouds:sky clear below 12,000 feet AGL
QC Flag:automated observation with no human augmentation
Text:KCVO 310456Z AUTO 31013KT 10SM CLR 23/14 A2994 RMK AO2 SLP139 T02330139
Temperature: 23.3°C ( 74°F)
Dewpoint: 13.9°C ( 57°F) [RH = 56%]
Pressure (altimeter):29.94 inches Hg (1014.0 mb) [Sea level pressure: 1013.9 mb]
Winds:from the NW (310 degrees) at 15 MPH (13 knots; 6.7 m/s)
Visibility:10 or more sm (16+ km)
Ceiling:at least 12,000 feet AGL
Clouds:sky clear below 12,000 feet AGL
QC Flag:automated observation with no human augmentation
Text:KCVO 310356Z AUTO 31013KT 10SM CLR 25/14 A2992 RMK AO2 SLP131 T02500144
Temperature: 25.0°C ( 77°F)
Dewpoint: 14.4°C ( 58°F) [RH = 52%]
Pressure (altimeter):29.92 inches Hg (1013.3 mb) [Sea level pressure: 1013.1 mb]
Winds:from the NW (310 degrees) at 15 MPH (13 knots; 6.7 m/s)
Visibility:10 or more sm (16+ km)
Ceiling:at least 12,000 feet AGL
Clouds:sky clear below 12,000 feet AGL
QC Flag:automated observation with no human augmentation
Text:KCVO 310256Z AUTO 31011KT 10SM CLR 28/15 A2991 RMK AO2 SLP126 T02780150 53005
Temperature: 27.8°C ( 82°F)
Dewpoint: 15.0°C ( 59°F) [RH = 46%]
Pressure (altimeter):29.91 inches Hg (1013.0 mb) [Sea level pressure: 1012.6 mb]
Winds:from the NW (310 degrees) at 13 MPH (11 knots; 5.7 m/s)
Visibility:10 or more sm (16+ km)
Ceiling:at least 12,000 feet AGL
Clouds:sky clear below 12,000 feet AGL
QC Flag:automated observation with no human augmentation
Text:KCVO 310156Z AUTO 27003KT 10SM CLR 32/17 A2990 RMK AO2 SLP123 T03170167
Temperature: 31.7°C ( 89°F)
Dewpoint: 16.7°C ( 62°F) [RH = 41%]
Pressure (altimeter):29.90 inches Hg (1012.6 mb) [Sea level pressure: 1012.3 mb]
Winds:from the W (270 degrees) at 3 MPH (3 knots; 1.5 m/s)
Visibility:10 or more sm (16+ km)
Ceiling:at least 12,000 feet AGL
Clouds:sky clear below 12,000 feet AGL
QC Flag:automated observation with no human augmentation
Text:KCVO 310056Z AUTO VRB04KT 8SM CLR 32/16 A2989 RMK AO2 SLP122 T03170156
Temperature: 31.7°C ( 89°F)
Dewpoint: 15.6°C ( 60°F) [RH = 38%]
Pressure (altimeter):29.89 inches Hg (1012.3 mb) [Sea level pressure: 1012.2 mb]
Winds:variable direction winds at 5 MPH (4 knots; 2.1 m/s)
Visibility: 8 sm ( 13 km)
Ceiling:at least 12,000 feet AGL
Clouds:sky clear below 12,000 feet AGL
QC Flag:automated observation with no human augmentation
Text:KCVO 302356Z AUTO 14006KT 10SM CLR 32/16 A2989 RMK AO2 SLP120 T03220156 10328 20272 56014
Temperature: 32.2°C ( 90°F)
Dewpoint: 15.6°C ( 60°F) [RH = 37%]
Pressure (altimeter):29.89 inches Hg (1012.3 mb) [Sea level pressure: 1012.0 mb]
Winds:from the SE (140 degrees) at 7 MPH (6 knots; 3.1 m/s)
Visibility:10 or more sm (16+ km)
Ceiling:at least 12,000 feet AGL
Clouds:sky clear below 12,000 feet AGL
QC Flag:automated observation with no human augmentation
Text:KCVO 302256Z AUTO 04007KT 10SM FEW085 31/15 A2989 RMK AO2 PRESFR SLP122 T03110150
Temperature: 31.1°C ( 88°F)
Dewpoint: 15.0°C ( 59°F) [RH = 38%]
Pressure (altimeter):29.89 inches Hg (1012.3 mb) [Sea level pressure: 1012.2 mb]
Winds:from the NE (40 degrees) at 8 MPH (7 knots; 3.6 m/s)
Visibility:10 or more sm (16+ km)
Ceiling:at least 12,000 feet AGL
Clouds: few clouds at 8500 feet AGL
QC Flag:automated observation with no human augmentation
Text:KCVO 302156Z AUTO 10006KT 10SM CLR 32/14 A2992 RMK AO2 LTG DSNT S SLP130 T03170144
Temperature: 31.7°C ( 89°F)
Dewpoint: 14.4°C ( 58°F) [RH = 35%]
Pressure (altimeter):29.92 inches Hg (1013.3 mb) [Sea level pressure: 1013.0 mb]
Winds:from the E (100 degrees) at 7 MPH (6 knots; 3.1 m/s)
Visibility:10 or more sm (16+ km)
Ceiling:at least 12,000 feet AGL
Clouds:sky clear below 12,000 feet AGL
QC Flag:automated observation with no human augmentation
Text:KCVO 302056Z AUTO 04004KT 10SM CLR 32/14 A2993 RMK AO2 SLP134 T03170139 58010
Temperature: 31.7°C ( 89°F)
Dewpoint: 13.9°C ( 57°F) [RH = 34%]
Pressure (altimeter):29.93 inches Hg (1013.6 mb) [Sea level pressure: 1013.4 mb]
Winds:from the NE (40 degrees) at 5 MPH (4 knots; 2.1 m/s)
Visibility:10 or more sm (16+ km)
Ceiling:at least 12,000 feet AGL
Clouds:sky clear below 12,000 feet AGL
QC Flag:automated observation with no human augmentation
Text:KCVO 301956Z AUTO 00000KT 10SM CLR 31/14 A2994 RMK AO2 SLP138 T03060139
Temperature: 30.6°C ( 87°F)
Dewpoint: 13.9°C ( 57°F) [RH = 36%]
Pressure (altimeter):29.94 inches Hg (1014.0 mb) [Sea level pressure: 1013.8 mb]
Winds:calm
Visibility:10 or more sm (16+ km)
Ceiling:at least 12,000 feet AGL
Clouds:sky clear below 12,000 feet AGL
QC Flag:automated observation with no human augmentation
Text:KCVO 301856Z AUTO 00000KT 10SM CLR 29/14 A2995 RMK AO2 SLP142 T02890144
Temperature: 28.9°C ( 84°F)
Dewpoint: 14.4°C ( 58°F) [RH = 41%]
Pressure (altimeter):29.95 inches Hg (1014.3 mb) [Sea level pressure: 1014.2 mb]
Winds:calm
Visibility:10 or more sm (16+ km)
Ceiling:at least 12,000 feet AGL
Clouds:sky clear below 12,000 feet AGL
QC Flag:automated observation with no human augmentation
Text:KCVO 301756Z AUTO 03004KT 10SM CLR 27/14 A2996 RMK AO2 SLP144 T02720139 10272 20161 58005
Temperature: 27.2°C ( 81°F)
Dewpoint: 13.9°C ( 57°F) [RH = 44%]
Pressure (altimeter):29.96 inches Hg (1014.6 mb) [Sea level pressure: 1014.4 mb]
Winds:from the NNE (30 degrees) at 5 MPH (4 knots; 2.1 m/s)
Visibility:10 or more sm (16+ km)
Ceiling:at least 12,000 feet AGL
Clouds:sky clear below 12,000 feet AGL
QC Flag:automated observation with no human augmentation